createdAt,value
2023-01-29T00:01:15.347Z,3.90
2023-01-29T00:05:28.002Z,3.90
2023-01-29T00:09:35.181Z,3.90
2023-01-29T00:13:42.465Z,4.00
2023-01-29T00:17:49.358Z,3.90
2023-01-29T00:21:56.199Z,3.80
2023-01-29T00:26:02.900Z,4.00
2023-01-29T00:30:12.829Z,4.00
2023-01-29T00:34:19.540Z,4.00
2023-01-29T00:38:26.231Z,4.10
2023-01-29T00:42:51.786Z,4.10
2023-01-29T00:46:58.814Z,4.10
2023-01-29T00:51:05.717Z,4.10
2023-01-29T00:55:12.789Z,4.00
2023-01-29T00:59:19.494Z,4.00
2023-01-29T01:03:26.209Z,4.00
2023-01-29T01:07:33.151Z,4.00
2023-01-29T01:11:39.874Z,4.00
2023-01-29T01:15:46.564Z,4.00
2023-01-29T01:19:53.267Z,3.90
2023-01-29T01:23:59.960Z,3.90
2023-01-29T01:28:07.149Z,3.90
2023-01-29T01:32:14.282Z,3.80
2023-01-29T01:36:21.047Z,3.90
2023-01-29T01:40:27.715Z,3.90
2023-01-29T01:45:01.216Z,3.80
2023-01-29T01:49:15.939Z,3.90
2023-01-29T01:53:26.827Z,3.80
2023-01-29T01:57:33.652Z,3.90
2023-01-29T02:01:43.057Z,3.80
2023-01-29T02:06:09.511Z,3.80
2023-01-29T02:10:17.321Z,3.90
2023-01-29T02:14:25.491Z,3.90
2023-01-29T02:18:38.023Z,4.00
2023-01-29T02:23:03.821Z,4.00
2023-01-29T02:27:39.294Z,3.90
2023-01-29T02:31:56.814Z,4.00
2023-01-29T02:36:16.942Z,4.00
2023-01-29T02:40:23.570Z,4.00
2023-01-29T02:44:42.210Z,3.90
2023-01-29T02:49:01.831Z,4.00
2023-01-29T02:53:15.227Z,4.00
2023-01-29T02:57:29.195Z,3.90
2023-01-29T03:01:58.536Z,3.90
2023-01-29T03:06:34.497Z,3.90
2023-01-29T03:10:47.855Z,3.90
2023-01-29T03:15:13.167Z,3.90
2023-01-29T03:19:36.092Z,4.00
2023-01-29T03:24:01.405Z,4.00
2023-01-29T03:28:29.562Z,4.00
2023-01-29T03:32:38.482Z,3.90
2023-01-29T03:36:59.874Z,3.90
2023-01-29T03:41:19.479Z,3.90
2023-01-29T03:45:42.739Z,3.90
2023-01-29T03:50:16.044Z,3.90
2023-01-29T03:54:58.196Z,3.90
2023-01-29T03:59:15.776Z,3.80
2023-01-29T04:03:37.248Z,3.80
2023-01-29T04:07:46.002Z,3.90
2023-01-29T04:12:09.225Z,3.80
2023-01-29T04:16:23.949Z,3.80
2023-01-29T04:20:30.965Z,3.80
2023-01-29T04:24:37.960Z,3.80
2023-01-29T04:29:16.512Z,3.80
2023-01-29T04:34:01.603Z,3.80
2023-01-29T04:38:20.803Z,3.70
2023-01-29T04:42:33.676Z,3.70
2023-01-29T04:47:05.865Z,3.70
2023-01-29T04:51:25.773Z,3.70
2023-01-29T04:55:49.625Z,3.70
2023-01-29T05:00:08.697Z,3.70
2023-01-29T05:04:19.182Z,3.60
2023-01-29T05:08:28.301Z,3.60
2023-01-29T05:12:37.761Z,3.60
2023-01-29T05:16:49.401Z,3.60
2023-01-29T05:20:57.971Z,3.50
2023-01-29T05:25:07.162Z,3.60
2023-01-29T05:29:13.852Z,3.50
2023-01-29T05:33:23.203Z,3.50
2023-01-29T05:37:29.938Z,3.50
2023-01-29T05:41:36.623Z,3.40
2023-01-29T05:45:43.580Z,3.40
2023-01-29T05:49:50.282Z,3.40
2023-01-29T05:53:56.983Z,3.40
2023-01-29T05:58:05.909Z,3.50
2023-01-29T06:02:12.840Z,3.50
2023-01-29T06:06:19.548Z,3.50
2023-01-29T06:10:26.252Z,3.60
2023-01-29T06:14:32.983Z,3.60
2023-01-29T06:18:41.306Z,3.50
2023-01-29T06:22:47.986Z,3.60
2023-01-29T06:26:54.679Z,3.60
2023-01-29T06:31:23.777Z,3.60
2023-01-29T06:35:32.694Z,3.60
2023-01-29T06:39:39.384Z,3.60
2023-01-29T06:43:46.155Z,3.60
2023-01-29T06:47:52.842Z,3.60
2023-01-29T06:51:59.592Z,3.60
2023-01-29T06:56:07.273Z,3.60
2023-01-29T07:00:15.471Z,3.50
2023-01-29T07:04:22.361Z,3.60
2023-01-29T07:08:29.116Z,3.50
2023-01-29T07:12:35.812Z,3.50
2023-01-29T07:16:42.541Z,3.50
2023-01-29T07:20:49.256Z,3.50
2023-01-29T07:24:55.950Z,3.50
2023-01-29T07:29:04.560Z,3.50
2023-01-29T07:33:11.942Z,3.50
2023-01-29T07:37:18.616Z,3.50
2023-01-29T07:41:25.446Z,3.50
2023-01-29T07:45:35.295Z,3.60
2023-01-29T07:49:42.225Z,3.60
2023-01-29T07:53:48.893Z,3.70
2023-01-29T07:58:00.459Z,3.70
2023-01-29T08:02:08.887Z,3.70
2023-01-29T08:06:15.714Z,3.70
2023-01-29T08:10:22.708Z,3.80
2023-01-29T08:14:29.416Z,3.80
2023-01-29T08:18:37.922Z,3.80
2023-01-29T08:22:44.697Z,3.90
2023-01-29T08:26:51.386Z,3.90
2023-01-29T08:30:58.658Z,3.80
2023-01-29T08:35:05.692Z,3.90
2023-01-29T08:39:12.428Z,3.90
2023-01-29T08:43:19.100Z,3.90
2023-01-29T08:47:26.999Z,4.00
2023-01-29T08:51:34.712Z,4.10
2023-01-29T08:55:42.067Z,4.20
2023-01-29T08:59:48.851Z,4.20
2023-01-29T09:03:55.521Z,4.30
2023-01-29T09:08:02.237Z,4.20
2023-01-29T09:12:08.904Z,4.30
2023-01-29T09:16:15.664Z,4.30
2023-01-29T09:20:22.469Z,4.40
2023-01-29T09:24:29.885Z,4.40
2023-01-29T09:28:36.576Z,4.40
2023-01-29T09:32:53.318Z,4.50
2023-01-29T09:37:00.600Z,4.50
2023-01-29T09:41:33.690Z,4.60
2023-01-29T09:46:00.089Z,4.60
2023-01-29T09:50:36.283Z,4.50
2023-01-29T09:54:49.325Z,4.50
2023-01-29T10:03:04.171Z,4.60
2023-01-29T10:03:54.430Z,4.50
2023-01-29T10:08:28.962Z,4.50
2023-01-29T10:13:19.967Z,4.50
2023-01-29T10:17:39.277Z,4.60
2023-01-29T10:22:21.851Z,4.50
2023-01-29T10:26:29.783Z,4.50
2023-01-29T10:30:44.165Z,4.50
2023-01-29T10:35:04.425Z,4.60
2023-01-29T10:39:19.418Z,4.60
2023-01-29T10:43:52.966Z,4.60
2023-01-29T10:48:18.369Z,4.60
2023-01-29T10:52:35.315Z,4.60
2023-01-29T10:57:36.131Z,4.70
2023-01-29T11:01:42.865Z,4.70
2023-01-29T11:06:12.904Z,4.70
2023-01-29T11:10:22.281Z,4.70
2023-01-29T11:14:34.205Z,4.70
2023-01-29T11:18:52.872Z,4.70
2023-01-29T11:23:00.337Z,4.70
2023-01-29T11:27:25.907Z,4.70
2023-01-29T11:31:38.515Z,4.70
2023-01-29T11:35:46.158Z,4.70
2023-01-29T11:39:53.279Z,4.80
2023-01-29T11:44:01.078Z,4.70
2023-01-29T11:48:18.671Z,4.70
2023-01-29T11:52:38.944Z,4.90
2023-01-29T11:56:47.746Z,4.90
2023-01-29T12:00:55.637Z,5.00
2023-01-29T12:05:23.520Z,5.00
2023-01-29T12:09:31.052Z,4.90
2023-01-29T12:13:39.081Z,5.00
2023-01-29T12:17:53.628Z,5.00
2023-01-29T12:22:05.981Z,5.00
2023-01-29T12:26:21.563Z,5.10
2023-01-29T12:30:48.158Z,5.10
2023-01-29T12:35:31.004Z,5.20
2023-01-29T12:39:37.771Z,5.20
2023-01-29T12:43:52.636Z,5.20
2023-01-29T12:48:04.768Z,5.10
2023-01-29T12:52:32.970Z,5.10
2023-01-29T12:56:47.167Z,5.20
2023-01-29T13:00:57.091Z,5.10
2023-01-29T13:05:40.029Z,5.20
2023-01-29T13:09:50.976Z,5.30
2023-01-29T13:14:03.591Z,5.20
2023-01-29T13:18:16.023Z,5.10
2023-01-29T13:22:34.042Z,5.10
2023-01-29T13:26:41.883Z,5.00
2023-01-29T13:31:12.666Z,4.90
2023-01-29T13:35:22.554Z,4.80
2023-01-29T13:39:39.678Z,4.80
2023-01-29T13:43:50.279Z,4.70
2023-01-29T13:48:20.099Z,4.70
2023-01-29T13:52:36.932Z,4.70
2023-01-29T13:56:56.566Z,4.70
2023-01-29T14:01:03.347Z,4.70
2023-01-29T14:05:32.063Z,4.70
2023-01-29T14:09:38.706Z,4.70
2023-01-29T14:13:47.381Z,4.70
2023-01-29T14:18:00.193Z,4.70
2023-01-29T14:22:06.967Z,4.80
2023-01-29T14:26:28.150Z,4.90
2023-01-29T14:30:35.441Z,4.90
2023-01-29T14:34:45.590Z,5.00
2023-01-29T14:38:54.340Z,5.00
2023-01-29T14:43:07.828Z,4.90
2023-01-29T14:47:32.843Z,4.90
2023-01-29T14:51:43.170Z,4.90
2023-01-29T14:55:58.202Z,4.90
2023-01-29T15:00:13.102Z,5.00
2023-01-29T15:04:30.537Z,4.90
2023-01-29T15:09:22.068Z,4.80
2023-01-29T15:13:53.607Z,4.90
2023-01-29T15:18:16.264Z,4.80
2023-01-29T15:22:29.791Z,4.80
2023-01-29T15:26:36.811Z,4.70
2023-01-29T15:30:45.052Z,4.70
2023-01-29T15:34:51.973Z,4.60
2023-01-29T15:39:18.889Z,4.60
2023-01-29T15:43:25.555Z,4.60
2023-01-29T15:47:32.718Z,4.60
2023-01-29T15:51:39.769Z,4.70
2023-01-29T15:55:47.535Z,4.60
2023-01-29T15:59:56.439Z,4.60
2023-01-29T16:04:03.760Z,4.60
2023-01-29T16:08:13.959Z,4.70
2023-01-29T16:12:21.207Z,4.60
2023-01-29T16:16:28.828Z,4.50
2023-01-29T16:20:46.936Z,4.50
2023-01-29T16:24:54.633Z,4.60
2023-01-29T16:29:11.432Z,4.50
2023-01-29T16:33:19.660Z,4.50
2023-01-29T16:37:28.544Z,4.50
2023-01-29T16:41:36.614Z,4.50
2023-01-29T16:45:58.707Z,4.60
2023-01-29T16:50:40.724Z,4.50
2023-01-29T16:55:00.174Z,4.50
2023-01-29T16:59:12.279Z,4.30
2023-01-29T17:03:20.012Z,4.30
2023-01-29T17:07:27.595Z,4.30
2023-01-29T17:11:38.121Z,4.30
2023-01-29T17:15:46.867Z,4.20
2023-01-29T17:19:53.587Z,4.20
2023-01-29T17:24:00.247Z,4.20
2023-01-29T17:28:07.535Z,4.20
2023-01-29T17:32:17.528Z,4.20
2023-01-29T17:36:26.001Z,4.20
2023-01-29T17:40:46.935Z,4.20
2023-01-29T17:44:53.690Z,4.20
2023-01-29T17:49:00.406Z,4.10
2023-01-29T17:53:07.263Z,4.10
2023-01-29T17:57:14.910Z,4.20
2023-01-29T18:01:21.729Z,4.10
2023-01-29T18:05:29.594Z,4.10
2023-01-29T18:09:36.287Z,4.10
2023-01-29T18:13:42.958Z,4.10
2023-01-29T18:17:52.107Z,4.10
2023-01-29T18:21:59.661Z,4.10
2023-01-29T18:26:07.597Z,4.10
2023-01-29T18:30:14.843Z,4.20
2023-01-29T18:34:21.702Z,4.10
2023-01-29T18:38:28.637Z,4.10
2023-01-29T18:42:36.033Z,4.10
2023-01-29T18:46:42.796Z,4.20
2023-01-29T18:50:50.540Z,4.20
2023-01-29T18:54:57.322Z,4.20
2023-01-29T18:59:05.699Z,4.20
2023-01-29T19:03:13.333Z,4.10
2023-01-29T19:07:20.126Z,4.00
2023-01-29T19:11:26.832Z,4.10
2023-01-29T19:15:33.969Z,4.10
2023-01-29T19:19:40.756Z,4.20
2023-01-29T19:23:47.831Z,4.20
2023-01-29T19:27:54.522Z,4.20
2023-01-29T19:32:01.238Z,4.30
2023-01-29T19:36:08.198Z,4.30
2023-01-29T19:40:14.978Z,4.30
2023-01-29T19:44:21.647Z,4.40
2023-01-29T19:48:28.759Z,4.40
2023-01-29T19:52:50.663Z,4.50
2023-01-29T19:56:58.066Z,4.50
2023-01-29T20:01:17.203Z,4.50
2023-01-29T20:05:26.927Z,4.60
2023-01-29T20:09:33.621Z,4.60
2023-01-29T20:13:40.677Z,4.50
2023-01-29T20:17:47.353Z,4.40
2023-01-29T20:21:54.070Z,4.60
2023-01-29T20:26:01.275Z,4.70
2023-01-29T20:30:08.655Z,4.70
2023-01-29T20:34:15.366Z,4.70
2023-01-29T20:38:22.419Z,4.70
2023-01-29T20:42:29.114Z,4.80
2023-01-29T20:46:36.133Z,4.80
2023-01-29T20:50:42.962Z,4.90
2023-01-29T20:54:49.646Z,4.90
2023-01-29T20:58:56.473Z,5.00
2023-01-29T21:03:03.432Z,5.00
2023-01-29T21:07:10.184Z,5.00
2023-01-29T21:11:17.006Z,5.00
2023-01-29T21:15:26.005Z,5.10
2023-01-29T21:19:33.031Z,5.10
2023-01-29T21:23:39.778Z,5.10
2023-01-29T21:27:46.522Z,5.10
2023-01-29T21:31:53.236Z,5.10
2023-01-29T21:36:00.849Z,5.10
2023-01-29T21:40:09.573Z,5.10
2023-01-29T21:44:16.225Z,5.10
2023-01-29T21:48:23.298Z,5.10
2023-01-29T21:52:29.959Z,5.10
2023-01-29T21:56:37.763Z,5.10
2023-01-29T22:00:48.752Z,5.20
2023-01-29T22:05:16.516Z,5.20
2023-01-29T22:09:24.689Z,5.20
2023-01-29T22:13:31.497Z,5.30
2023-01-29T22:17:41.067Z,5.20
2023-01-29T22:21:47.743Z,5.30
2023-01-29T22:25:54.742Z,5.40
2023-01-29T22:30:01.535Z,5.40
2023-01-29T22:34:10.344Z,5.30
2023-01-29T22:38:17.018Z,5.30
2023-01-29T22:42:23.703Z,5.40
2023-01-29T22:46:30.846Z,5.40
2023-01-29T22:50:38.691Z,5.40
2023-01-29T22:54:45.367Z,5.40
2023-01-29T22:58:57.154Z,5.40
2023-01-29T23:03:04.369Z,5.50
2023-01-29T23:07:11.355Z,5.60
2023-01-29T23:11:20.570Z,5.60
2023-01-29T23:15:27.273Z,5.60
2023-01-29T23:19:34.003Z,5.60
2023-01-29T23:23:40.878Z,5.60
2023-01-29T23:27:47.592Z,5.60
2023-01-29T23:31:54.460Z,5.60
2023-01-29T23:36:01.206Z,5.70
2023-01-29T23:40:08.546Z,5.70
2023-01-29T23:44:15.255Z,5.80
2023-01-29T23:48:22.430Z,5.80
2023-01-29T23:52:29.088Z,5.80
2023-01-29T23:56:35.763Z,5.80
